sensor_id;sensor_type;location;lat;lon;timestamp;temperature;humidity
22698;DHT22;11516;51.612;7.510;2023-06-19T00:00:10;24.00;87.20
22698;DHT22;11516;51.612;7.510;2023-06-19T00:02:41;24.00;87.30
22698;DHT22;11516;51.612;7.510;2023-06-19T00:05:08;24.00;87.40
22698;DHT22;11516;51.612;7.510;2023-06-19T00:07:36;23.90;88.00
22698;DHT22;11516;51.612;7.510;2023-06-19T00:10:03;23.90;88.10
22698;DHT22;11516;51.612;7.510;2023-06-19T00:12:29;23.80;88.40
22698;DHT22;11516;51.612;7.510;2023-06-19T00:14:54;23.80;88.80
22698;DHT22;11516;51.612;7.510;2023-06-19T00:17:20;23.70;88.90
22698;DHT22;11516;51.612;7.510;2023-06-19T00:19:45;23.80;88.80
22698;DHT22;11516;51.612;7.510;2023-06-19T00:22:12;23.50;88.70
22698;DHT22;11516;51.612;7.510;2023-06-19T00:24:37;23.70;89.30
22698;DHT22;11516;51.612;7.510;2023-06-19T00:27:03;23.80;89.90
22698;DHT22;11516;51.612;7.510;2023-06-19T00:29:29;23.70;89.90
22698;DHT22;11516;51.612;7.510;2023-06-19T00:31:55;23.70;90.00
22698;DHT22;11516;51.612;7.510;2023-06-19T00:34:20;23.70;88.80
22698;DHT22;11516;51.612;7.510;2023-06-19T00:36:52;23.70;88.20
22698;DHT22;11516;51.612;7.510;2023-06-19T00:39:22;23.80;88.20
22698;DHT22;11516;51.612;7.510;2023-06-19T00:41:48;23.90;88.40
22698;DHT22;11516;51.612;7.510;2023-06-19T00:44:14;23.90;89.10
22698;DHT22;11516;51.612;7.510;2023-06-19T00:46:40;23.90;89.80
22698;DHT22;11516;51.612;7.510;2023-06-19T00:49:07;23.70;90.00
22698;DHT22;11516;51.612;7.510;2023-06-19T00:51:33;23.70;89.90
22698;DHT22;11516;51.612;7.510;2023-06-19T00:53:59;23.70;90.10
22698;DHT22;11516;51.612;7.510;2023-06-19T00:56:25;23.60;90.20
22698;DHT22;11516;51.612;7.510;2023-06-19T00:58:52;23.60;90.40
22698;DHT22;11516;51.612;7.510;2023-06-19T01:01:19;23.50;90.60
22698;DHT22;11516;51.612;7.510;2023-06-19T01:03:46;23.40;90.90
22698;DHT22;11516;51.612;7.510;2023-06-19T01:06:19;23.20;91.00
22698;DHT22;11516;51.612;7.510;2023-06-19T01:09:02;23.10;91.30
22698;DHT22;11516;51.612;7.510;2023-06-19T01:11:41;23.10;91.50
22698;DHT22;11516;51.612;7.510;2023-06-19T01:14:12;23.10;91.60
22698;DHT22;11516;51.612;7.510;2023-06-19T01:16:39;23.00;91.80
22698;DHT22;11516;51.612;7.510;2023-06-19T01:19:09;23.00;92.00
22698;DHT22;11516;51.612;7.510;2023-06-19T01:21:35;22.90;92.00
22698;DHT22;11516;51.612;7.510;2023-06-19T01:24:02;23.00;92.10
22698;DHT22;11516;51.612;7.510;2023-06-19T01:26:28;23.00;92.30
22698;DHT22;11516;51.612;7.510;2023-06-19T01:28:54;23.00;92.40
22698;DHT22;11516;51.612;7.510;2023-06-19T01:31:44;22.90;92.30
22698;DHT22;11516;51.612;7.510;2023-06-19T01:34:12;22.90;92.60
22698;DHT22;11516;51.612;7.510;2023-06-19T01:36:40;22.90;93.00
22698;DHT22;11516;51.612;7.510;2023-06-19T01:39:06;22.80;92.90
22698;DHT22;11516;51.612;7.510;2023-06-19T01:41:33;22.90;92.90
22698;DHT22;11516;51.612;7.510;2023-06-19T01:43:59;22.90;93.10
22698;DHT22;11516;51.612;7.510;2023-06-19T01:46:25;22.90;93.10
22698;DHT22;11516;51.612;7.510;2023-06-19T01:48:51;22.90;93.30
22698;DHT22;11516;51.612;7.510;2023-06-19T01:51:17;22.80;93.50
22698;DHT22;11516;51.612;7.510;2023-06-19T01:53:43;22.80;93.40
22698;DHT22;11516;51.612;7.510;2023-06-19T01:56:08;22.90;93.60
22698;DHT22;11516;51.612;7.510;2023-06-19T01:58:34;22.80;93.70
22698;DHT22;11516;51.612;7.510;2023-06-19T02:00:59;22.80;93.60
22698;DHT22;11516;51.612;7.510;2023-06-19T02:03:25;22.80;94.00
22698;DHT22;11516;51.612;7.510;2023-06-19T02:05:51;22.80;94.00
22698;DHT22;11516;51.612;7.510;2023-06-19T02:08:16;22.70;94.20
22698;DHT22;11516;51.612;7.510;2023-06-19T02:10:42;22.70;94.40
22698;DHT22;11516;51.612;7.510;2023-06-19T02:13:07;22.70;94.60
22698;DHT22;11516;51.612;7.510;2023-06-19T02:15:33;22.70;94.70
22698;DHT22;11516;51.612;7.510;2023-06-19T02:17:59;22.70;94.80
22698;DHT22;11516;51.612;7.510;2023-06-19T02:20:25;22.70;95.10
22698;DHT22;11516;51.612;7.510;2023-06-19T02:22:51;22.60;95.20
22698;DHT22;11516;51.612;7.510;2023-06-19T02:25:17;22.60;95.10
22698;DHT22;11516;51.612;7.510;2023-06-19T02:27:42;22.60;95.20
22698;DHT22;11516;51.612;7.510;2023-06-19T02:30:08;22.60;95.20
22698;DHT22;11516;51.612;7.510;2023-06-19T02:32:34;22.60;95.40
22698;DHT22;11516;51.612;7.510;2023-06-19T02:34:59;22.60;95.40
22698;DHT22;11516;51.612;7.510;2023-06-19T02:37:25;22.60;95.50
22698;DHT22;11516;51.612;7.510;2023-06-19T02:39:50;22.50;95.50
22698;DHT22;11516;51.612;7.510;2023-06-19T02:42:16;22.50;95.60
22698;DHT22;11516;51.612;7.510;2023-06-19T02:44:41;22.50;95.60
22698;DHT22;11516;51.612;7.510;2023-06-19T02:47:08;22.50;95.70
22698;DHT22;11516;51.612;7.510;2023-06-19T02:49:34;22.50;96.10
22698;DHT22;11516;51.612;7.510;2023-06-19T02:51:59;22.90;96.00
22698;DHT22;11516;51.612;7.510;2023-06-19T02:54:25;22.50;95.90
22698;DHT22;11516;51.612;7.510;2023-06-19T02:56:51;22.50;96.70
22698;DHT22;11516;51.612;7.510;2023-06-19T02:59:16;22.40;96.30
22698;DHT22;11516;51.612;7.510;2023-06-19T03:01:42;22.50;96.50
22698;DHT22;11516;51.612;7.510;2023-06-19T03:04:07;22.40;96.60
22698;DHT22;11516;51.612;7.510;2023-06-19T03:06:33;22.40;96.60
22698;DHT22;11516;51.612;7.510;2023-06-19T03:09:04;22.40;96.60
22698;DHT22;11516;51.612;7.510;2023-06-19T03:11:30;22.50;96.60
22698;DHT22;11516;51.612;7.510;2023-06-19T03:13:56;22.50;96.60
22698;DHT22;11516;51.612;7.510;2023-06-19T03:16:22;22.50;96.60
22698;DHT22;11516;51.612;7.510;2023-06-19T03:18:47;22.60;96.70
22698;DHT22;11516;51.612;7.510;2023-06-19T03:21:16;22.50;96.60
22698;DHT22;11516;51.612;7.510;2023-06-19T03:23:44;22.50;96.20
22698;DHT22;11516;51.612;7.510;2023-06-19T03:26:10;23.90;96.00
22698;DHT22;11516;51.612;7.510;2023-06-19T03:28:36;22.70;95.30
22698;DHT22;11516;51.612;7.510;2023-06-19T03:31:02;22.80;94.90
22698;DHT22;11516;51.612;7.510;2023-06-19T03:33:28;22.80;94.80
22698;DHT22;11516;51.612;7.510;2023-06-19T03:35:53;22.90;94.50
22698;DHT22;11516;51.612;7.510;2023-06-19T03:38:19;23.00;94.50
22698;DHT22;11516;51.612;7.510;2023-06-19T03:40:44;23.00;95.00
22698;DHT22;11516;51.612;7.510;2023-06-19T03:43:10;22.90;94.70
22698;DHT22;11516;51.612;7.510;2023-06-19T03:45:36;23.10;94.40
22698;DHT22;11516;51.612;7.510;2023-06-19T03:48:02;22.90;94.30
22698;DHT22;11516;51.612;7.510;2023-06-19T03:50:27;23.00;94.30
22698;DHT22;11516;51.612;7.510;2023-06-19T03:52:53;23.00;94.20
22698;DHT22;11516;51.612;7.510;2023-06-19T03:55:18;23.00;94.20
22698;DHT22;11516;51.612;7.510;2023-06-19T03:57:44;23.10;94.20
22698;DHT22;11516;51.612;7.510;2023-06-19T04:00:10;23.10;94.20
22698;DHT22;11516;51.612;7.510;2023-06-19T04:02:38;23.10;94.30
22698;DHT22;11516;51.612;7.510;2023-06-19T04:05:05;23.20;94.50
22698;DHT22;11516;51.612;7.510;2023-06-19T04:07:31;23.00;94.80
22698;DHT22;11516;51.612;7.510;2023-06-19T04:09:57;23.00;95.10
22698;DHT22;11516;51.612;7.510;2023-06-19T04:12:23;22.90;95.40
22698;DHT22;11516;51.612;7.510;2023-06-19T04:14:49;22.90;95.80
22698;DHT22;11516;51.612;7.510;2023-06-19T04:17:14;22.80;96.10
22698;DHT22;11516;51.612;7.510;2023-06-19T04:19:41;22.90;96.50
22698;DHT22;11516;51.612;7.510;2023-06-19T04:22:06;22.70;96.70
22698;DHT22;11516;51.612;7.510;2023-06-19T04:24:32;22.60;96.90
22698;DHT22;11516;51.612;7.510;2023-06-19T04:26:57;22.60;97.10
22698;DHT22;11516;51.612;7.510;2023-06-19T04:29:23;22.60;97.30
22698;DHT22;11516;51.612;7.510;2023-06-19T04:31:49;22.70;97.40
22698;DHT22;11516;51.612;7.510;2023-06-19T04:34:16;22.60;97.60
22698;DHT22;11516;51.612;7.510;2023-06-19T04:36:42;22.50;98.10
22698;DHT22;11516;51.612;7.510;2023-06-19T04:39:08;22.50;97.90
22698;DHT22;11516;51.612;7.510;2023-06-19T04:41:35;22.50;98.10
22698;DHT22;11516;51.612;7.510;2023-06-19T04:44:04;22.60;98.00
22698;DHT22;11516;51.612;7.510;2023-06-19T04:46:30;22.50;98.20
22698;DHT22;11516;51.612;7.510;2023-06-19T04:48:55;22.50;98.30
22698;DHT22;11516;51.612;7.510;2023-06-19T04:51:21;22.60;98.30
22698;DHT22;11516;51.612;7.510;2023-06-19T04:53:49;22.60;98.40
22698;DHT22;11516;51.612;7.510;2023-06-19T04:56:15;22.50;98.60
22698;DHT22;11516;51.612;7.510;2023-06-19T04:58:41;22.50;99.00
22698;DHT22;11516;51.612;7.510;2023-06-19T05:01:14;22.50;99.00
22698;DHT22;11516;51.612;7.510;2023-06-19T05:03:41;22.40;99.20
22698;DHT22;11516;51.612;7.510;2023-06-19T05:06:07;22.30;99.40
22698;DHT22;11516;51.612;7.510;2023-06-19T05:08:32;22.30;99.50
22698;DHT22;11516;51.612;7.510;2023-06-19T05:10:58;22.40;99.60
22698;DHT22;11516;51.612;7.510;2023-06-19T05:13:24;22.30;99.80
22698;DHT22;11516;51.612;7.510;2023-06-19T05:15:49;22.40;99.80
22698;DHT22;11516;51.612;7.510;2023-06-19T05:18:18;22.30;99.90
22698;DHT22;11516;51.612;7.510;2023-06-19T05:20:44;22.20;99.90
22698;DHT22;11516;51.612;7.510;2023-06-19T05:23:10;22.10;99.90
22698;DHT22;11516;51.612;7.510;2023-06-19T05:25:36;22.00;99.90
22698;DHT22;11516;51.612;7.510;2023-06-19T05:28:02;22.00;99.90
22698;DHT22;11516;51.612;7.510;2023-06-19T05:30:27;22.10;99.90
22698;DHT22;11516;51.612;7.510;2023-06-19T05:32:53;22.40;99.90
22698;DHT22;11516;51.612;7.510;2023-06-19T05:35:18;21.90;99.90
22698;DHT22;11516;51.612;7.510;2023-06-19T05:37:44;21.90;99.90
22698;DHT22;11516;51.612;7.510;2023-06-19T05:40:10;21.90;99.90
22698;DHT22;11516;51.612;7.510;2023-06-19T05:42:36;21.90;99.90
22698;DHT22;11516;51.612;7.510;2023-06-19T05:45:05;21.90;99.90
22698;DHT22;11516;51.612;7.510;2023-06-19T05:47:31;21.90;99.90
22698;DHT22;11516;51.612;7.510;2023-06-19T05:49:57;21.80;99.90
22698;DHT22;11516;51.612;7.510;2023-06-19T05:52:23;21.80;99.90
22698;DHT22;11516;51.612;7.510;2023-06-19T05:54:48;21.80;99.90
22698;DHT22;11516;51.612;7.510;2023-06-19T05:57:14;21.80;99.90
22698;DHT22;11516;51.612;7.510;2023-06-19T05:59:41;21.80;99.90
22698;DHT22;11516;51.612;7.510;2023-06-19T06:02:07;21.90;99.90
22698;DHT22;11516;51.612;7.510;2023-06-19T06:04:33;22.00;99.90
22698;DHT22;11516;51.612;7.510;2023-06-19T06:07:00;22.00;99.90
22698;DHT22;11516;51.612;7.510;2023-06-19T06:09:25;22.00;99.90
22698;DHT22;11516;51.612;7.510;2023-06-19T06:11:52;22.10;99.90
22698;DHT22;11516;51.612;7.510;2023-06-19T06:14:18;22.00;99.90
22698;DHT22;11516;51.612;7.510;2023-06-19T06:16:43;22.20;99.90
22698;DHT22;11516;51.612;7.510;2023-06-19T06:19:09;22.20;99.90
22698;DHT22;11516;51.612;7.510;2023-06-19T06:21:34;22.30;99.90
22698;DHT22;11516;51.612;7.510;2023-06-19T06:24:00;22.20;99.90
22698;DHT22;11516;51.612;7.510;2023-06-19T06:26:26;22.20;99.90
22698;DHT22;11516;51.612;7.510;2023-06-19T06:28:53;22.10;99.90
22698;DHT22;11516;51.612;7.510;2023-06-19T06:31:18;22.10;99.90
22698;DHT22;11516;51.612;7.510;2023-06-19T06:33:44;22.10;99.90
22698;DHT22;11516;51.612;7.510;2023-06-19T06:36:10;22.00;99.90
22698;DHT22;11516;51.612;7.510;2023-06-19T06:38:35;22.00;99.90
22698;DHT22;11516;51.612;7.510;2023-06-19T06:41:02;22.00;99.90
22698;DHT22;11516;51.612;7.510;2023-06-19T06:43:27;22.20;99.90
22698;DHT22;11516;51.612;7.510;2023-06-19T06:45:53;22.40;99.90
22698;DHT22;11516;51.612;7.510;2023-06-19T06:48:18;22.40;99.90
22698;DHT22;11516;51.612;7.510;2023-06-19T06:50:44;22.50;99.90
22698;DHT22;11516;51.612;7.510;2023-06-19T06:53:09;22.50;99.90
22698;DHT22;11516;51.612;7.510;2023-06-19T06:55:35;22.50;99.90
22698;DHT22;11516;51.612;7.510;2023-06-19T06:58:01;22.20;99.90
22698;DHT22;11516;51.612;7.510;2023-06-19T07:00:26;22.20;99.90
22698;DHT22;11516;51.612;7.510;2023-06-19T07:02:53;22.20;99.90
22698;DHT22;11516;51.612;7.510;2023-06-19T07:05:18;22.30;99.90
22698;DHT22;11516;51.612;7.510;2023-06-19T07:07:44;22.40;99.90
22698;DHT22;11516;51.612;7.510;2023-06-19T07:10:09;22.50;99.90
22698;DHT22;11516;51.612;7.510;2023-06-19T07:12:35;21.60;99.90
22698;DHT22;11516;51.612;7.510;2023-06-19T07:15:01;22.40;99.90
22698;DHT22;11516;51.612;7.510;2023-06-19T07:17:27;22.20;99.90
22698;DHT22;11516;51.612;7.510;2023-06-19T07:19:52;23.00;99.90
22698;DHT22;11516;51.612;7.510;2023-06-19T07:22:18;22.80;99.90
22698;DHT22;11516;51.612;7.510;2023-06-19T07:24:44;22.70;99.90
22698;DHT22;11516;51.612;7.510;2023-06-19T07:27:09;22.80;99.90
22698;DHT22;11516;51.612;7.510;2023-06-19T07:29:35;22.70;99.90
22698;DHT22;11516;51.612;7.510;2023-06-19T07:32:00;22.70;99.90
22698;DHT22;11516;51.612;7.510;2023-06-19T07:34:27;22.70;99.90
22698;DHT22;11516;51.612;7.510;2023-06-19T07:36:53;22.80;99.90
22698;DHT22;11516;51.612;7.510;2023-06-19T07:39:18;22.80;99.90
22698;DHT22;11516;51.612;7.510;2023-06-19T07:41:44;22.70;99.90
22698;DHT22;11516;51.612;7.510;2023-06-19T07:44:11;22.60;99.90
22698;DHT22;11516;51.612;7.510;2023-06-19T07:46:36;22.80;99.90
22698;DHT22;11516;51.612;7.510;2023-06-19T07:49:02;22.80;99.90
22698;DHT22;11516;51.612;7.510;2023-06-19T07:51:27;22.90;99.90
22698;DHT22;11516;51.612;7.510;2023-06-19T07:53:53;22.90;99.90
22698;DHT22;11516;51.612;7.510;2023-06-19T07:56:18;22.90;99.90
22698;DHT22;11516;51.612;7.510;2023-06-19T07:58:44;23.20;99.90
22698;DHT22;11516;51.612;7.510;2023-06-19T08:01:09;23.40;99.90
22698;DHT22;11516;51.612;7.510;2023-06-19T08:03:35;23.50;99.90
22698;DHT22;11516;51.612;7.510;2023-06-19T08:06:01;23.40;99.90
22698;DHT22;11516;51.612;7.510;2023-06-19T08:08:27;23.40;99.90
22698;DHT22;11516;51.612;7.510;2023-06-19T08:10:52;23.10;99.90
22698;DHT22;11516;51.612;7.510;2023-06-19T08:13:18;22.70;99.90
22698;DHT22;11516;51.612;7.510;2023-06-19T08:15:43;23.00;99.90
22698;DHT22;11516;51.612;7.510;2023-06-19T08:18:10;23.10;99.90
22698;DHT22;11516;51.612;7.510;2023-06-19T08:20:36;23.10;99.90
22698;DHT22;11516;51.612;7.510;2023-06-19T08:23:01;23.00;99.90
22698;DHT22;11516;51.612;7.510;2023-06-19T08:25:27;23.20;99.90
22698;DHT22;11516;51.612;7.510;2023-06-19T08:27:53;23.20;99.90
22698;DHT22;11516;51.612;7.510;2023-06-19T08:30:18;23.10;99.90
22698;DHT22;11516;51.612;7.510;2023-06-19T08:32:45;23.00;99.90
22698;DHT22;11516;51.612;7.510;2023-06-19T08:35:11;23.10;99.90
22698;DHT22;11516;51.612;7.510;2023-06-19T08:37:36;23.30;99.90
22698;DHT22;11516;51.612;7.510;2023-06-19T08:40:02;23.40;99.90
22698;DHT22;11516;51.612;7.510;2023-06-19T08:42:31;23.30;99.90
22698;DHT22;11516;51.612;7.510;2023-06-19T08:44:56;23.00;99.90
22698;DHT22;11516;51.612;7.510;2023-06-19T08:47:22;22.90;99.90
22698;DHT22;11516;51.612;7.510;2023-06-19T08:49:54;23.00;99.90
22698;DHT22;11516;51.612;7.510;2023-06-19T08:52:19;23.20;99.90
22698;DHT22;11516;51.612;7.510;2023-06-19T08:54:45;23.10;99.90
22698;DHT22;11516;51.612;7.510;2023-06-19T08:57:11;23.10;99.90
22698;DHT22;11516;51.612;7.510;2023-06-19T08:59:37;23.00;99.90
22698;DHT22;11516;51.612;7.510;2023-06-19T09:02:03;23.40;99.90
22698;DHT22;11516;51.612;7.510;2023-06-19T09:04:28;23.50;99.90
22698;DHT22;11516;51.612;7.510;2023-06-19T09:06:58;23.60;99.90
22698;DHT22;11516;51.612;7.510;2023-06-19T09:09:25;23.80;99.90
22698;DHT22;11516;51.612;7.510;2023-06-19T09:14:38;23.70;99.90
22698;DHT22;11516;51.612;7.510;2023-06-19T09:17:10;23.90;99.90
22698;DHT22;11516;51.612;7.510;2023-06-19T09:19:36;23.90;99.90
22698;DHT22;11516;51.612;7.510;2023-06-19T09:22:03;23.70;99.90
22698;DHT22;11516;51.612;7.510;2023-06-19T09:24:40;23.60;99.90
22698;DHT22;11516;51.612;7.510;2023-06-19T09:27:14;23.80;99.90
22698;DHT22;11516;51.612;7.510;2023-06-19T09:29:41;23.90;99.90
22698;DHT22;11516;51.612;7.510;2023-06-19T09:32:26;23.70;99.90
22698;DHT22;11516;51.612;7.510;2023-06-19T09:34:55;23.50;99.90
22698;DHT22;11516;51.612;7.510;2023-06-19T09:37:28;23.50;99.90
22698;DHT22;11516;51.612;7.510;2023-06-19T09:40:02;23.50;99.90
22698;DHT22;11516;51.612;7.510;2023-06-19T09:42:39;23.40;99.90
22698;DHT22;11516;51.612;7.510;2023-06-19T09:45:07;23.30;99.90
22698;DHT22;11516;51.612;7.510;2023-06-19T09:47:40;23.40;99.90
22698;DHT22;11516;51.612;7.510;2023-06-19T09:50:07;23.50;99.90
22698;DHT22;11516;51.612;7.510;2023-06-19T09:52:34;23.60;99.90
22698;DHT22;11516;51.612;7.510;2023-06-19T09:55:02;23.70;99.90
22698;DHT22;11516;51.612;7.510;2023-06-19T09:57:28;23.80;99.90
22698;DHT22;11516;51.612;7.510;2023-06-19T09:59:56;23.70;99.90
22698;DHT22;11516;51.612;7.510;2023-06-19T10:02:22;23.50;99.90
22698;DHT22;11516;51.612;7.510;2023-06-19T10:04:53;23.80;99.90
22698;DHT22;11516;51.612;7.510;2023-06-19T10:07:25;24.00;99.90
22698;DHT22;11516;51.612;7.510;2023-06-19T10:10:00;24.00;99.90
22698;DHT22;11516;51.612;7.510;2023-06-19T10:17:37;24.10;99.90
22698;DHT22;11516;51.612;7.510;2023-06-19T10:20:03;24.00;99.90
22698;DHT22;11516;51.612;7.510;2023-06-19T10:22:31;24.00;99.90
22698;DHT22;11516;51.612;7.510;2023-06-19T10:24:57;24.10;99.90
22698;DHT22;11516;51.612;7.510;2023-06-19T10:27:24;23.80;99.90
22698;DHT22;11516;51.612;7.510;2023-06-19T10:29:54;24.00;99.90
22698;DHT22;11516;51.612;7.510;2023-06-19T10:32:20;24.40;99.90
22698;DHT22;11516;51.612;7.510;2023-06-19T10:34:47;24.60;99.90
22698;DHT22;11516;51.612;7.510;2023-06-19T10:37:17;24.70;99.90
22698;DHT22;11516;51.612;7.510;2023-06-19T10:39:43;24.60;99.90
22698;DHT22;11516;51.612;7.510;2023-06-19T10:42:10;24.80;99.90
22698;DHT22;11516;51.612;7.510;2023-06-19T10:44:36;24.80;99.90
22698;DHT22;11516;51.612;7.510;2023-06-19T10:47:05;24.80;99.90
22698;DHT22;11516;51.612;7.510;2023-06-19T10:49:32;24.90;99.90
22698;DHT22;11516;51.612;7.510;2023-06-19T10:51:59;24.60;99.90
22698;DHT22;11516;51.612;7.510;2023-06-19T10:54:27;24.70;99.90
22698;DHT22;11516;51.612;7.510;2023-06-19T10:56:53;25.10;99.90
22698;DHT22;11516;51.612;7.510;2023-06-19T10:59:19;25.40;99.80
22698;DHT22;11516;51.612;7.510;2023-06-19T11:01:46;26.10;98.00
22698;DHT22;11516;51.612;7.510;2023-06-19T11:04:13;27.00;96.50
22698;DHT22;11516;51.612;7.510;2023-06-19T11:06:40;27.80;95.00
22698;DHT22;11516;51.612;7.510;2023-06-19T11:09:07;27.80;95.20
22698;DHT22;11516;51.612;7.510;2023-06-19T11:11:40;28.40;93.40
22698;DHT22;11516;51.612;7.510;2023-06-19T11:14:07;28.30;94.00
22698;DHT22;11516;51.612;7.510;2023-06-19T11:16:34;28.60;93.30
22698;DHT22;11516;51.612;7.510;2023-06-19T11:19:00;28.30;92.90
22698;DHT22;11516;51.612;7.510;2023-06-19T11:21:37;28.20;92.90
22698;DHT22;11516;51.612;7.510;2023-06-19T11:24:11;27.90;93.10
22698;DHT22;11516;51.612;7.510;2023-06-19T11:26:46;28.50;93.40
22698;DHT22;11516;51.612;7.510;2023-06-19T11:29:41;28.70;92.90
22698;DHT22;11516;51.612;7.510;2023-06-19T11:32:11;28.60;92.10
22698;DHT22;11516;51.612;7.510;2023-06-19T11:34:37;27.60;92.20
22698;DHT22;11516;51.612;7.510;2023-06-19T11:37:16;27.50;92.40
22698;DHT22;11516;51.612;7.510;2023-06-19T11:39:47;27.50;93.00
22698;DHT22;11516;51.612;7.510;2023-06-19T11:42:14;27.90;92.60
22698;DHT22;11516;51.612;7.510;2023-06-19T11:45:02;28.20;92.80
22698;DHT22;11516;51.612;7.510;2023-06-19T11:47:31;27.60;92.50
22698;DHT22;11516;51.612;7.510;2023-06-19T11:49:59;27.50;93.00
22698;DHT22;11516;51.612;7.510;2023-06-19T11:52:26;28.30;92.40
22698;DHT22;11516;51.612;7.510;2023-06-19T11:54:51;28.70;91.50
22698;DHT22;11516;51.612;7.510;2023-06-19T11:57:17;28.60;91.90
22698;DHT22;11516;51.612;7.510;2023-06-19T11:59:42;29.00;91.20
22698;DHT22;11516;51.612;7.510;2023-06-19T12:02:09;29.30;90.90
22698;DHT22;11516;51.612;7.510;2023-06-19T12:04:35;29.20;90.90
22698;DHT22;11516;51.612;7.510;2023-06-19T12:07:01;28.90;90.90
22698;DHT22;11516;51.612;7.510;2023-06-19T12:09:29;29.20;89.70
22698;DHT22;11516;51.612;7.510;2023-06-19T12:11:55;29.00;90.40
22698;DHT22;11516;51.612;7.510;2023-06-19T12:14:20;29.00;89.10
22698;DHT22;11516;51.612;7.510;2023-06-19T12:16:46;29.50;88.10
22698;DHT22;11516;51.612;7.510;2023-06-19T12:19:12;29.90;87.80
22698;DHT22;11516;51.612;7.510;2023-06-19T12:21:38;29.40;88.60
22698;DHT22;11516;51.612;7.510;2023-06-19T12:24:03;29.10;89.80
22698;DHT22;11516;51.612;7.510;2023-06-19T12:26:29;29.50;88.00
22698;DHT22;11516;51.612;7.510;2023-06-19T12:28:55;30.50;87.90
22698;DHT22;11516;51.612;7.510;2023-06-19T12:31:20;30.80;83.90
22698;DHT22;11516;51.612;7.510;2023-06-19T12:33:46;30.60;85.00
22698;DHT22;11516;51.612;7.510;2023-06-19T12:36:14;30.00;85.40
22698;DHT22;11516;51.612;7.510;2023-06-19T12:38:40;30.20;85.40
22698;DHT22;11516;51.612;7.510;2023-06-19T12:41:06;30.80;82.70
22698;DHT22;11516;51.612;7.510;2023-06-19T12:43:32;30.80;83.30
22698;DHT22;11516;51.612;7.510;2023-06-19T12:45:58;31.40;82.70
22698;DHT22;11516;51.612;7.510;2023-06-19T12:48:27;32.00;80.00
22698;DHT22;11516;51.612;7.510;2023-06-19T12:50:52;30.60;82.30
22698;DHT22;11516;51.612;7.510;2023-06-19T12:53:18;30.40;83.00
22698;DHT22;11516;51.612;7.510;2023-06-19T12:55:44;29.80;83.10
22698;DHT22;11516;51.612;7.510;2023-06-19T12:58:10;30.00;82.70
22698;DHT22;11516;51.612;7.510;2023-06-19T13:00:36;30.70;81.70
22698;DHT22;11516;51.612;7.510;2023-06-19T13:03:02;30.80;81.70
22698;DHT22;11516;51.612;7.510;2023-06-19T13:05:28;30.70;81.50
22698;DHT22;11516;51.612;7.510;2023-06-19T13:07:53;30.80;82.60
22698;DHT22;11516;51.612;7.510;2023-06-19T13:10:19;30.90;80.90
22698;DHT22;11516;51.612;7.510;2023-06-19T13:12:44;31.40;78.50
22698;DHT22;11516;51.612;7.510;2023-06-19T13:15:10;31.10;79.90
22698;DHT22;11516;51.612;7.510;2023-06-19T13:17:35;30.20;81.30
22698;DHT22;11516;51.612;7.510;2023-06-19T13:20:01;30.20;80.60
22698;DHT22;11516;51.612;7.510;2023-06-19T13:22:29;29.20;82.80
22698;DHT22;11516;51.612;7.510;2023-06-19T13:24:55;29.00;83.60
22698;DHT22;11516;51.612;7.510;2023-06-19T13:27:21;29.00;84.10
22698;DHT22;11516;51.612;7.510;2023-06-19T13:29:46;29.00;82.90
22698;DHT22;11516;51.612;7.510;2023-06-19T13:32:12;28.80;84.10
22698;DHT22;11516;51.612;7.510;2023-06-19T13:34:37;28.70;84.80
22698;DHT22;11516;51.612;7.510;2023-06-19T13:37:03;28.70;85.00
22698;DHT22;11516;51.612;7.510;2023-06-19T13:39:29;28.90;84.70
22698;DHT22;11516;51.612;7.510;2023-06-19T13:41:55;29.20;83.10
22698;DHT22;11516;51.612;7.510;2023-06-19T13:44:21;29.90;82.90
22698;DHT22;11516;51.612;7.510;2023-06-19T13:46:46;30.40;81.40
22698;DHT22;11516;51.612;7.510;2023-06-19T13:49:12;30.90;80.50
22698;DHT22;11516;51.612;7.510;2023-06-19T13:51:39;31.00;79.20
22698;DHT22;11516;51.612;7.510;2023-06-19T13:54:05;30.50;79.80
22698;DHT22;11516;51.612;7.510;2023-06-19T13:56:31;30.10;81.20
22698;DHT22;11516;51.612;7.510;2023-06-19T13:58:58;29.90;81.40
22698;DHT22;11516;51.612;7.510;2023-06-19T14:01:24;30.20;81.10
22698;DHT22;11516;51.612;7.510;2023-06-19T14:03:50;30.50;80.10
22698;DHT22;11516;51.612;7.510;2023-06-19T14:06:16;31.10;78.50
22698;DHT22;11516;51.612;7.510;2023-06-19T14:08:42;31.00;78.40
22698;DHT22;11516;51.612;7.510;2023-06-19T14:11:07;31.60;77.90
22698;DHT22;11516;51.612;7.510;2023-06-19T14:13:33;31.50;78.40
22698;DHT22;11516;51.612;7.510;2023-06-19T14:15:59;31.90;76.90
22698;DHT22;11516;51.612;7.510;2023-06-19T14:18:24;32.50;75.00
22698;DHT22;11516;51.612;7.510;2023-06-19T14:20:50;32.10;75.30
22698;DHT22;11516;51.612;7.510;2023-06-19T14:23:15;31.70;75.80
22698;DHT22;11516;51.612;7.510;2023-06-19T14:25:41;31.90;76.60
22698;DHT22;11516;51.612;7.510;2023-06-19T14:28:06;32.30;75.40
22698;DHT22;11516;51.612;7.510;2023-06-19T14:30:32;32.40;73.50
22698;DHT22;11516;51.612;7.510;2023-06-19T14:32:57;31.90;74.30
22698;DHT22;11516;51.612;7.510;2023-06-19T14:35:23;31.10;75.80
22698;DHT22;11516;51.612;7.510;2023-06-19T14:37:49;31.40;76.00
22698;DHT22;11516;51.612;7.510;2023-06-19T14:40:14;30.90;76.40
22698;DHT22;11516;51.612;7.510;2023-06-19T14:42:40;31.40;75.70
22698;DHT22;11516;51.612;7.510;2023-06-19T14:45:06;31.70;75.70
22698;DHT22;11516;51.612;7.510;2023-06-19T14:47:32;31.10;75.80
22698;DHT22;11516;51.612;7.510;2023-06-19T14:49:58;31.10;76.30
22698;DHT22;11516;51.612;7.510;2023-06-19T14:52:24;31.60;75.60
22698;DHT22;11516;51.612;7.510;2023-06-19T14:54:49;31.30;75.10
22698;DHT22;11516;51.612;7.510;2023-06-19T14:57:15;31.10;75.40
22698;DHT22;11516;51.612;7.510;2023-06-19T14:59:40;30.90;75.70
22698;DHT22;11516;51.612;7.510;2023-06-19T15:02:06;31.00;75.50
22698;DHT22;11516;51.612;7.510;2023-06-19T15:04:38;30.70;76.00
22698;DHT22;11516;51.612;7.510;2023-06-19T15:07:06;31.10;76.20
22698;DHT22;11516;51.612;7.510;2023-06-19T15:09:32;30.80;76.50
22698;DHT22;11516;51.612;7.510;2023-06-19T15:11:57;31.20;76.00
22698;DHT22;11516;51.612;7.510;2023-06-19T15:14:23;31.60;74.60
22698;DHT22;11516;51.612;7.510;2023-06-19T15:16:49;31.30;74.50
22698;DHT22;11516;51.612;7.510;2023-06-19T15:19:15;30.30;76.00
22698;DHT22;11516;51.612;7.510;2023-06-19T15:21:41;30.60;76.00
22698;DHT22;11516;51.612;7.510;2023-06-19T15:24:07;31.30;75.00
22698;DHT22;11516;51.612;7.510;2023-06-19T15:26:34;31.50;74.20
22698;DHT22;11516;51.612;7.510;2023-06-19T15:29:01;31.90;73.50
22698;DHT22;11516;51.612;7.510;2023-06-19T15:31:26;31.60;72.90
22698;DHT22;11516;51.612;7.510;2023-06-19T15:33:52;31.90;72.00